sensor_id;sensor_type;location;lat;lon;timestamp;temperature;humidity
65985;HTU21D;52748;51.112;5.880;2023-02-28T00:00:19;16.75;52.36
65985;HTU21D;52748;51.112;5.880;2023-02-28T00:02:46;16.74;52.34
65985;HTU21D;52748;51.112;5.880;2023-02-28T00:05:15;16.75;52.32
65985;HTU21D;52748;51.112;5.880;2023-02-28T00:07:41;16.74;52.30
65985;HTU21D;52748;51.112;5.880;2023-02-28T00:10:11;16.73;52.27
65985;HTU21D;52748;51.112;5.880;2023-02-28T00:12:38;16.73;52.25
65985;HTU21D;52748;51.112;5.880;2023-02-28T00:15:09;16.72;52.23
65985;HTU21D;52748;51.112;5.880;2023-02-28T00:17:36;16.70;52.20
65985;HTU21D;52748;51.112;5.880;2023-02-28T00:20:05;16.70;52.20
65985;HTU21D;52748;51.112;5.880;2023-02-28T00:22:34;16.72;52.17
65985;HTU21D;52748;51.112;5.880;2023-02-28T00:25:00;16.75;52.01
65985;HTU21D;52748;51.112;5.880;2023-02-28T00:27:26;16.77;51.87
65985;HTU21D;52748;51.112;5.880;2023-02-28T00:29:51;16.73;51.91
65985;HTU21D;52748;51.112;5.880;2023-02-28T00:32:19;16.72;51.96
65985;HTU21D;52748;51.112;5.880;2023-02-28T00:34:45;16.71;52.00
65985;HTU21D;52748;51.112;5.880;2023-02-28T00:37:11;16.73;51.86
65985;HTU21D;52748;51.112;5.880;2023-02-28T00:39:40;16.70;51.93
65985;HTU21D;52748;51.112;5.880;2023-02-28T00:42:07;16.69;51.93
65985;HTU21D;52748;51.112;5.880;2023-02-28T00:44:33;16.66;51.98
65985;HTU21D;52748;51.112;5.880;2023-02-28T00:47:00;16.65;51.99
65985;HTU21D;52748;51.112;5.880;2023-02-28T00:49:27;16.65;52.01
65985;HTU21D;52748;51.112;5.880;2023-02-28T00:51:54;16.64;51.98
65985;HTU21D;52748;51.112;5.880;2023-02-28T00:54:22;16.63;51.95
65985;HTU21D;52748;51.112;5.880;2023-02-28T00:56:48;16.63;51.95
65985;HTU21D;52748;51.112;5.880;2023-02-28T00:59:16;16.63;51.94
65985;HTU21D;52748;51.112;5.880;2023-02-28T01:01:43;16.62;51.90
65985;HTU21D;52748;51.112;5.880;2023-02-28T01:04:09;16.61;51.89
65985;HTU21D;52748;51.112;5.880;2023-02-28T01:06:36;16.60;51.86
65985;HTU21D;52748;51.112;5.880;2023-02-28T01:09:03;16.60;51.85
65985;HTU21D;52748;51.112;5.880;2023-02-28T01:11:30;16.60;51.82
65985;HTU21D;52748;51.112;5.880;2023-02-28T01:13:56;16.60;51.82
65985;HTU21D;52748;51.112;5.880;2023-02-28T01:16:21;16.60;51.79
65985;HTU21D;52748;51.112;5.880;2023-02-28T01:18:47;16.59;51.75
65985;HTU21D;52748;51.112;5.880;2023-02-28T01:21:16;16.59;51.69
65985;HTU21D;52748;51.112;5.880;2023-02-28T01:23:44;16.58;51.76
65985;HTU21D;52748;51.112;5.880;2023-02-28T01:26:14;16.56;51.76
65985;HTU21D;52748;51.112;5.880;2023-02-28T01:28:40;16.56;51.73
65985;HTU21D;52748;51.112;5.880;2023-02-28T01:31:06;16.56;51.66
65985;HTU21D;52748;51.112;5.880;2023-02-28T01:33:32;16.55;51.66
65985;HTU21D;52748;51.112;5.880;2023-02-28T01:36:03;16.55;51.69
65985;HTU21D;52748;51.112;5.880;2023-02-28T01:38:31;16.52;51.68
65985;HTU21D;52748;51.112;5.880;2023-02-28T01:40:57;16.54;51.63
65985;HTU21D;52748;51.112;5.880;2023-02-28T01:43:26;16.54;51.60
65985;HTU21D;52748;51.112;5.880;2023-02-28T01:45:56;16.52;51.56
65985;HTU21D;52748;51.112;5.880;2023-02-28T01:48:35;16.50;51.53
65985;HTU21D;52748;51.112;5.880;2023-02-28T01:51:16;16.50;51.54
65985;HTU21D;52748;51.112;5.880;2023-02-28T01:53:51;16.50;51.51
65985;HTU21D;52748;51.112;5.880;2023-02-28T01:56:23;16.49;51.50
65985;HTU21D;52748;51.112;5.880;2023-02-28T01:58:52;16.50;51.45
65985;HTU21D;52748;51.112;5.880;2023-02-28T02:01:21;16.48;51.44
65985;HTU21D;52748;51.112;5.880;2023-02-28T02:03:54;16.47;51.43
65985;HTU21D;52748;51.112;5.880;2023-02-28T02:06:33;16.47;51.45
65985;HTU21D;52748;51.112;5.880;2023-02-28T02:08:59;16.48;51.67
65985;HTU21D;52748;51.112;5.880;2023-02-28T02:11:26;16.48;52.30
65985;HTU21D;52748;51.112;5.880;2023-02-28T02:17:07;16.50;54.08
65985;HTU21D;52748;51.112;5.880;2023-02-28T02:22:27;16.51;54.37
65985;HTU21D;52748;51.112;5.880;2023-02-28T02:31:23;16.54;55.33
65985;HTU21D;52748;51.112;5.880;2023-02-28T02:34:31;16.58;55.08
65985;HTU21D;52748;51.112;5.880;2023-02-28T02:42:41;16.57;55.13
65985;HTU21D;52748;51.112;5.880;2023-02-28T02:47:43;16.54;55.46
65985;HTU21D;52748;51.112;5.880;2023-02-28T02:50:20;16.51;55.16
65985;HTU21D;52748;51.112;5.880;2023-02-28T02:52:54;16.50;55.10
65985;HTU21D;52748;51.112;5.880;2023-02-28T02:55:23;16.50;55.05
65985;HTU21D;52748;51.112;5.880;2023-02-28T02:57:58;16.49;55.14
65985;HTU21D;52748;51.112;5.880;2023-02-28T03:00:32;16.48;54.81
65985;HTU21D;52748;51.112;5.880;2023-02-28T03:03:01;16.49;54.85
65985;HTU21D;52748;51.112;5.880;2023-02-28T03:08:09;16.47;54.97
65985;HTU21D;52748;51.112;5.880;2023-02-28T03:10:58;16.48;54.97
65985;HTU21D;52748;51.112;5.880;2023-02-28T03:16:17;16.47;54.98
65985;HTU21D;52748;51.112;5.880;2023-02-28T03:18:54;16.47;54.96
65985;HTU21D;52748;51.112;5.880;2023-02-28T03:21:34;16.46;54.69
65985;HTU21D;52748;51.112;5.880;2023-02-28T03:24:34;16.45;54.87
65985;HTU21D;52748;51.112;5.880;2023-02-28T03:27:17;16.45;54.91
65985;HTU21D;52748;51.112;5.880;2023-02-28T03:29:54;16.45;54.90
65985;HTU21D;52748;51.112;5.880;2023-02-28T03:32:36;16.45;54.81
65985;HTU21D;52748;51.112;5.880;2023-02-28T03:35:24;16.45;54.85
65985;HTU21D;52748;51.112;5.880;2023-02-28T03:38:03;16.44;54.78
65985;HTU21D;52748;51.112;5.880;2023-02-28T03:40:33;16.46;54.74
65985;HTU21D;52748;51.112;5.880;2023-02-28T03:43:08;16.45;54.75
65985;HTU21D;52748;51.112;5.880;2023-02-28T03:45:39;16.44;54.76
65985;HTU21D;52748;51.112;5.880;2023-02-28T03:48:17;16.44;54.72
65985;HTU21D;52748;51.112;5.880;2023-02-28T03:50:52;16.43;54.84
65985;HTU21D;52748;51.112;5.880;2023-02-28T03:53:34;16.42;54.78
65985;HTU21D;52748;51.112;5.880;2023-02-28T03:56:12;16.42;54.76
65985;HTU21D;52748;51.112;5.880;2023-02-28T04:01:25;16.41;54.85
65985;HTU21D;52748;51.112;5.880;2023-02-28T04:03:53;16.41;54.91
65985;HTU21D;52748;51.112;5.880;2023-02-28T04:06:23;16.40;55.00
65985;HTU21D;52748;51.112;5.880;2023-02-28T04:08:50;16.41;54.97
65985;HTU21D;52748;51.112;5.880;2023-02-28T04:13:57;16.40;54.80
65985;HTU21D;52748;51.112;5.880;2023-02-28T04:16:23;16.39;54.68
65985;HTU21D;52748;51.112;5.880;2023-02-28T04:18:49;16.39;54.71
65985;HTU21D;52748;51.112;5.880;2023-02-28T04:21:15;16.37;54.59
65985;HTU21D;52748;51.112;5.880;2023-02-28T04:23:40;16.37;54.55
65985;HTU21D;52748;51.112;5.880;2023-02-28T04:26:06;16.35;54.64
65985;HTU21D;52748;51.112;5.880;2023-02-28T04:28:33;16.36;54.66
65985;HTU21D;52748;51.112;5.880;2023-02-28T04:31:05;16.36;54.72
65985;HTU21D;52748;51.112;5.880;2023-02-28T04:33:32;16.37;54.68
65985;HTU21D;52748;51.112;5.880;2023-02-28T04:36:03;16.37;54.57
65985;HTU21D;52748;51.112;5.880;2023-02-28T04:38:33;16.36;54.53
65985;HTU21D;52748;51.112;5.880;2023-02-28T04:40:59;16.35;54.57
65985;HTU21D;52748;51.112;5.880;2023-02-28T04:43:26;16.34;54.65
65985;HTU21D;52748;51.112;5.880;2023-02-28T04:45:53;16.34;54.62
65985;HTU21D;52748;51.112;5.880;2023-02-28T04:48:28;16.35;54.64
65985;HTU21D;52748;51.112;5.880;2023-02-28T04:50:54;16.33;54.59
65985;HTU21D;52748;51.112;5.880;2023-02-28T04:53:21;16.33;54.46
65985;HTU21D;52748;51.112;5.880;2023-02-28T04:55:47;16.32;54.38
65985;HTU21D;52748;51.112;5.880;2023-02-28T04:58:13;16.32;54.37
65985;HTU21D;52748;51.112;5.880;2023-02-28T05:00:39;16.31;54.23
65985;HTU21D;52748;51.112;5.880;2023-02-28T05:03:05;16.30;54.36
65985;HTU21D;52748;51.112;5.880;2023-02-28T05:05:31;16.29;54.59
65985;HTU21D;52748;51.112;5.880;2023-02-28T05:07:57;16.29;54.54
65985;HTU21D;52748;51.112;5.880;2023-02-28T05:10:23;16.29;54.46
65985;HTU21D;52748;51.112;5.880;2023-02-28T05:12:49;16.30;54.44
65985;HTU21D;52748;51.112;5.880;2023-02-28T05:15:19;16.32;54.36
65985;HTU21D;52748;51.112;5.880;2023-02-28T05:17:45;16.29;54.44
65985;HTU21D;52748;51.112;5.880;2023-02-28T05:20:11;16.30;54.45
65985;HTU21D;52748;51.112;5.880;2023-02-28T05:22:39;16.28;54.49
65985;HTU21D;52748;51.112;5.880;2023-02-28T05:25:06;16.27;54.55
65985;HTU21D;52748;51.112;5.880;2023-02-28T05:27:32;16.26;54.48
65985;HTU21D;52748;51.112;5.880;2023-02-28T05:29:59;16.26;54.45
65985;HTU21D;52748;51.112;5.880;2023-02-28T05:32:25;16.26;54.52
65985;HTU21D;52748;51.112;5.880;2023-02-28T05:34:51;16.24;54.47
65985;HTU21D;52748;51.112;5.880;2023-02-28T05:37:16;16.26;54.41
65985;HTU21D;52748;51.112;5.880;2023-02-28T05:39:42;16.26;54.42
65985;HTU21D;52748;51.112;5.880;2023-02-28T05:42:11;16.25;54.53
65985;HTU21D;52748;51.112;5.880;2023-02-28T05:44:36;16.26;54.67
65985;HTU21D;52748;51.112;5.880;2023-02-28T05:47:02;16.26;54.77
65985;HTU21D;52748;51.112;5.880;2023-02-28T05:49:31;16.28;55.03
65985;HTU21D;52748;51.112;5.880;2023-02-28T05:51:57;16.29;55.10
65985;HTU21D;52748;51.112;5.880;2023-02-28T05:54:23;16.31;55.18
65985;HTU21D;52748;51.112;5.880;2023-02-28T05:56:49;16.34;55.20
65985;HTU21D;52748;51.112;5.880;2023-02-28T05:59:15;16.39;55.22
65985;HTU21D;52748;51.112;5.880;2023-02-28T06:01:45;16.39;55.18
65985;HTU21D;52748;51.112;5.880;2023-02-28T06:04:15;16.41;55.23
65985;HTU21D;52748;51.112;5.880;2023-02-28T06:06:44;16.43;55.42
65985;HTU21D;52748;51.112;5.880;2023-02-28T06:09:11;16.44;55.48
65985;HTU21D;52748;51.112;5.880;2023-02-28T06:11:37;16.45;55.23
65985;HTU21D;52748;51.112;5.880;2023-02-28T06:14:06;16.47;56.50
65985;HTU21D;52748;51.112;5.880;2023-02-28T06:16:34;16.52;57.18
65985;HTU21D;52748;51.112;5.880;2023-02-28T06:19:03;16.60;57.07
65985;HTU21D;52748;51.112;5.880;2023-02-28T06:21:30;16.67;56.84
65985;HTU21D;52748;51.112;5.880;2023-02-28T06:23:57;16.67;55.80
65985;HTU21D;52748;51.112;5.880;2023-02-28T06:26:24;16.67;55.45
65985;HTU21D;52748;51.112;5.880;2023-02-28T06:28:50;16.66;55.27
65985;HTU21D;52748;51.112;5.880;2023-02-28T06:31:17;16.64;55.13
65985;HTU21D;52748;51.112;5.880;2023-02-28T06:33:45;16.63;55.03
65985;HTU21D;52748;51.112;5.880;2023-02-28T06:36:13;16.63;54.87
65985;HTU21D;52748;51.112;5.880;2023-02-28T06:38:40;16.62;54.63
65985;HTU21D;52748;51.112;5.880;2023-02-28T06:41:06;16.63;54.97
65985;HTU21D;52748;51.112;5.880;2023-02-28T06:43:39;16.63;56.14
65985;HTU21D;52748;51.112;5.880;2023-02-28T06:46:11;16.66;57.02
65985;HTU21D;52748;51.112;5.880;2023-02-28T06:48:37;16.74;57.21
65985;HTU21D;52748;51.112;5.880;2023-02-28T06:51:06;16.72;56.89
65985;HTU21D;52748;51.112;5.880;2023-02-28T06:53:33;16.58;53.31
65985;HTU21D;52748;51.112;5.880;2023-02-28T06:55:59;16.54;54.60
65985;HTU21D;52748;51.112;5.880;2023-02-28T06:58:25;16.57;54.94
65985;HTU21D;52748;51.112;5.880;2023-02-28T07:00:52;16.59;54.86
65985;HTU21D;52748;51.112;5.880;2023-02-28T07:03:18;16.64;54.58
65985;HTU21D;52748;51.112;5.880;2023-02-28T07:05:45;16.65;54.51
65985;HTU21D;52748;51.112;5.880;2023-02-28T07:08:11;16.67;54.33
65985;HTU21D;52748;51.112;5.880;2023-02-28T07:10:44;16.67;54.15
65985;HTU21D;52748;51.112;5.880;2023-02-28T07:13:10;16.69;54.07
65985;HTU21D;52748;51.112;5.880;2023-02-28T07:15:37;16.72;54.50
65985;HTU21D;52748;51.112;5.880;2023-02-28T07:18:03;16.76;54.56
65985;HTU21D;52748;51.112;5.880;2023-02-28T07:20:30;16.81;54.06
65985;HTU21D;52748;51.112;5.880;2023-02-28T07:22:56;16.75;53.84
65985;HTU21D;52748;51.112;5.880;2023-02-28T07:25:26;16.75;53.60
65985;HTU21D;52748;51.112;5.880;2023-02-28T07:27:54;16.74;53.46
65985;HTU21D;52748;51.112;5.880;2023-02-28T07:30:20;16.72;53.35
65985;HTU21D;52748;51.112;5.880;2023-02-28T07:32:46;16.71;53.31
65985;HTU21D;52748;51.112;5.880;2023-02-28T07:35:13;16.73;53.13
65985;HTU21D;52748;51.112;5.880;2023-02-28T07:37:41;16.75;52.82
65985;HTU21D;52748;51.112;5.880;2023-02-28T07:40:10;16.75;52.65
65985;HTU21D;52748;51.112;5.880;2023-02-28T07:42:41;16.71;52.67
65985;HTU21D;52748;51.112;5.880;2023-02-28T07:45:09;16.70;52.69
65985;HTU21D;52748;51.112;5.880;2023-02-28T07:47:41;16.66;52.76
65985;HTU21D;52748;51.112;5.880;2023-02-28T07:50:11;16.65;52.78
65985;HTU21D;52748;51.112;5.880;2023-02-28T07:52:38;16.63;52.85
65985;HTU21D;52748;51.112;5.880;2023-02-28T07:55:05;16.62;52.81
65985;HTU21D;52748;51.112;5.880;2023-02-28T07:57:32;16.63;52.73
65985;HTU21D;52748;51.112;5.880;2023-02-28T07:59:58;16.61;52.69
65985;HTU21D;52748;51.112;5.880;2023-02-28T08:02:24;16.59;52.72
65985;HTU21D;52748;51.112;5.880;2023-02-28T08:04:50;16.58;52.74
65985;HTU21D;52748;51.112;5.880;2023-02-28T08:07:18;16.58;52.72
65985;HTU21D;52748;51.112;5.880;2023-02-28T08:09:44;16.55;52.70
65985;HTU21D;52748;51.112;5.880;2023-02-28T08:12:11;16.56;52.71
65985;HTU21D;52748;51.112;5.880;2023-02-28T08:14:38;16.54;52.62
65985;HTU21D;52748;51.112;5.880;2023-02-28T08:17:05;16.52;52.55
65985;HTU21D;52748;51.112;5.880;2023-02-28T08:19:32;16.51;52.55
65985;HTU21D;52748;51.112;5.880;2023-02-28T08:21:58;16.51;52.54
65985;HTU21D;52748;51.112;5.880;2023-02-28T08:24:24;16.51;52.49
65985;HTU21D;52748;51.112;5.880;2023-02-28T08:26:53;16.49;52.46
65985;HTU21D;52748;51.112;5.880;2023-02-28T08:29:19;16.50;52.49
65985;HTU21D;52748;51.112;5.880;2023-02-28T08:31:45;16.48;52.53
65985;HTU21D;52748;51.112;5.880;2023-02-28T08:34:13;16.49;52.48
65985;HTU21D;52748;51.112;5.880;2023-02-28T08:36:39;16.47;52.46
65985;HTU21D;52748;51.112;5.880;2023-02-28T08:39:06;16.47;52.46
65985;HTU21D;52748;51.112;5.880;2023-02-28T08:41:33;16.46;52.43
65985;HTU21D;52748;51.112;5.880;2023-02-28T08:43:59;16.45;52.43
65985;HTU21D;52748;51.112;5.880;2023-02-28T08:46:26;16.44;52.35
65985;HTU21D;52748;51.112;5.880;2023-02-28T08:48:54;16.44;52.29
65985;HTU21D;52748;51.112;5.880;2023-02-28T08:51:21;16.44;52.20
65985;HTU21D;52748;51.112;5.880;2023-02-28T08:53:53;16.43;52.14
65985;HTU21D;52748;51.112;5.880;2023-02-28T08:56:20;16.42;52.11
65985;HTU21D;52748;51.112;5.880;2023-02-28T08:58:48;16.45;51.96
65985;HTU21D;52748;51.112;5.880;2023-02-28T09:01:18;16.47;51.78
65985;HTU21D;52748;51.112;5.880;2023-02-28T09:03:46;16.49;51.69
65985;HTU21D;52748;51.112;5.880;2023-02-28T09:06:13;16.45;51.75
65985;HTU21D;52748;51.112;5.880;2023-02-28T09:08:40;16.43;51.79
65985;HTU21D;52748;51.112;5.880;2023-02-28T09:11:08;16.41;51.77
65985;HTU21D;52748;51.112;5.880;2023-02-28T09:13:35;16.43;51.70
65985;HTU21D;52748;51.112;5.880;2023-02-28T09:16:03;16.45;51.50
65985;HTU21D;52748;51.112;5.880;2023-02-28T09:18:30;16.42;51.37
65985;HTU21D;52748;51.112;5.880;2023-02-28T09:20:57;16.40;51.46
65985;HTU21D;52748;51.112;5.880;2023-02-28T09:23:24;16.37;51.53
65985;HTU21D;52748;51.112;5.880;2023-02-28T09:25:54;16.36;51.43
65985;HTU21D;52748;51.112;5.880;2023-02-28T09:28:21;16.36;51.44
65985;HTU21D;52748;51.112;5.880;2023-02-28T09:30:49;16.36;51.37
65985;HTU21D;52748;51.112;5.880;2023-02-28T09:33:17;16.35;51.33
65985;HTU21D;52748;51.112;5.880;2023-02-28T09:35:50;16.35;51.37
65985;HTU21D;52748;51.112;5.880;2023-02-28T09:38:17;16.35;51.35
65985;HTU21D;52748;51.112;5.880;2023-02-28T09:40:50;16.34;51.33
65985;HTU21D;52748;51.112;5.880;2023-02-28T09:43:22;16.34;51.32
65985;HTU21D;52748;51.112;5.880;2023-02-28T09:45:54;16.34;51.37
65985;HTU21D;52748;51.112;5.880;2023-02-28T09:48:29;16.33;51.41
65985;HTU21D;52748;51.112;5.880;2023-02-28T09:51:05;16.33;51.52
65985;HTU21D;52748;51.112;5.880;2023-02-28T09:53:37;16.33;51.66
65985;HTU21D;52748;51.112;5.880;2023-02-28T09:56:09;16.33;51.83
65985;HTU21D;52748;51.112;5.880;2023-02-28T09:58:52;16.32;51.86
65985;HTU21D;52748;51.112;5.880;2023-02-28T10:04:00;16.31;51.82
65985;HTU21D;52748;51.112;5.880;2023-02-28T10:06:36;16.31;51.95
65985;HTU21D;52748;51.112;5.880;2023-02-28T10:09:19;16.31;52.10
65985;HTU21D;52748;51.112;5.880;2023-02-28T10:11:52;16.29;52.27
65985;HTU21D;52748;51.112;5.880;2023-02-28T10:14:23;16.28;52.37
65985;HTU21D;52748;51.112;5.880;2023-02-28T10:17:05;16.28;52.43
65985;HTU21D;52748;51.112;5.880;2023-02-28T10:20:13;16.28;52.53
65985;HTU21D;52748;51.112;5.880;2023-02-28T10:23:26;16.27;52.57
65985;HTU21D;52748;51.112;5.880;2023-02-28T10:26:08;16.28;52.75
65985;HTU21D;52748;51.112;5.880;2023-02-28T10:28:35;16.26;52.96
65985;HTU21D;52748;51.112;5.880;2023-02-28T10:31:02;16.26;53.05
65985;HTU21D;52748;51.112;5.880;2023-02-28T10:33:33;16.25;53.14
65985;HTU21D;52748;51.112;5.880;2023-02-28T10:36:01;16.25;53.21
65985;HTU21D;52748;51.112;5.880;2023-02-28T10:38:33;16.22;53.27
65985;HTU21D;52748;51.112;5.880;2023-02-28T10:43:41;16.22;53.51
65985;HTU21D;52748;51.112;5.880;2023-02-28T10:48:42;16.21;53.50
65985;HTU21D;52748;51.112;5.880;2023-02-28T10:51:15;16.22;53.36
65985;HTU21D;52748;51.112;5.880;2023-02-28T10:53:51;16.25;53.28
65985;HTU21D;52748;51.112;5.880;2023-02-28T10:56:20;16.22;53.30
65985;HTU21D;52748;51.112;5.880;2023-02-28T10:59:24;16.22;53.34
65985;HTU21D;52748;51.112;5.880;2023-02-28T11:01:54;16.21;53.31
65985;HTU21D;52748;51.112;5.880;2023-02-28T11:04:33;16.20;53.21
65985;HTU21D;52748;51.112;5.880;2023-02-28T11:07:22;16.22;53.26
65985;HTU21D;52748;51.112;5.880;2023-02-28T11:09:50;16.20;53.17
65985;HTU21D;52748;51.112;5.880;2023-02-28T11:12:25;16.20;53.12
65985;HTU21D;52748;51.112;5.880;2023-02-28T11:15:00;16.20;53.01
65985;HTU21D;52748;51.112;5.880;2023-02-28T11:17:32;16.24;52.91
65985;HTU21D;52748;51.112;5.880;2023-02-28T11:20:03;16.21;53.04
65985;HTU21D;52748;51.112;5.880;2023-02-28T11:22:37;16.18;53.13
65985;HTU21D;52748;51.112;5.880;2023-02-28T11:25:12;16.18;53.14
65985;HTU21D;52748;51.112;5.880;2023-02-28T11:27:50;16.18;53.21
65985;HTU21D;52748;51.112;5.880;2023-02-28T11:30:30;16.17;53.35
65985;HTU21D;52748;51.112;5.880;2023-02-28T11:33:01;16.17;53.45
65985;HTU21D;52748;51.112;5.880;2023-02-28T11:35:39;16.16;53.56
65985;HTU21D;52748;51.112;5.880;2023-02-28T11:38:12;16.17;53.57
65985;HTU21D;52748;51.112;5.880;2023-02-28T12:05:22;16.27;55.49
65985;HTU21D;52748;51.112;5.880;2023-02-28T12:14:02;16.26;54.73
65985;HTU21D;52748;51.112;5.880;2023-02-28T12:22:37;16.26;54.81
65985;HTU21D;52748;51.112;5.880;2023-02-28T12:27:46;16.31;54.09
65985;HTU21D;52748;51.112;5.880;2023-02-28T12:30:33;16.27;53.97
65985;HTU21D;52748;51.112;5.880;2023-02-28T12:33:17;16.26;54.02
65985;HTU21D;52748;51.112;5.880;2023-02-28T12:35:54;16.25;54.05
65985;HTU21D;52748;51.112;5.880;2023-02-28T12:38:29;16.25;53.98
65985;HTU21D;52748;51.112;5.880;2023-02-28T12:41:01;16.24;53.99
65985;HTU21D;52748;51.112;5.880;2023-02-28T12:43:42;16.27;53.74
65985;HTU21D;52748;51.112;5.880;2023-02-28T12:46:23;16.27;53.72
65985;HTU21D;52748;51.112;5.880;2023-02-28T12:48:50;16.24;53.91
65985;HTU21D;52748;51.112;5.880;2023-02-28T12:51:19;16.21;53.76
65985;HTU21D;52748;51.112;5.880;2023-02-28T12:59:41;16.20;54.04
65985;HTU21D;52748;51.112;5.880;2023-02-28T13:10:45;16.20;54.08
65985;HTU21D;52748;51.112;5.880;2023-02-28T13:13:17;16.20;54.23
65985;HTU21D;52748;51.112;5.880;2023-02-28T13:16:16;16.21;54.35
65985;HTU21D;52748;51.112;5.880;2023-02-28T13:18:46;16.24;54.48
65985;HTU21D;52748;51.112;5.880;2023-02-28T13:21:26;16.26;54.60
65985;HTU21D;52748;51.112;5.880;2023-02-28T13:34:38;16.41;55.13
65985;HTU21D;52748;51.112;5.880;2023-02-28T13:42:49;16.50;55.04
65985;HTU21D;52748;51.112;5.880;2023-02-28T13:45:30;16.55;55.06
65985;HTU21D;52748;51.112;5.880;2023-02-28T13:48:00;16.58;54.96
65985;HTU21D;52748;51.112;5.880;2023-02-28T13:50:34;16.62;54.86
65985;HTU21D;52748;51.112;5.880;2023-02-28T14:06:54;16.75;55.03
65985;HTU21D;52748;51.112;5.880;2023-02-28T14:09:33;16.76;55.25
65985;HTU21D;52748;51.112;5.880;2023-02-28T14:15:45;16.80;55.47
65985;HTU21D;52748;51.112;5.880;2023-02-28T14:18:34;16.82;55.51
65985;HTU21D;52748;51.112;5.880;2023-02-28T14:21:20;16.84;55.26
65985;HTU21D;52748;51.112;5.880;2023-02-28T14:33:12;16.89;55.09
65985;HTU21D;52748;51.112;5.880;2023-02-28T14:38:35;16.91;55.28
65985;HTU21D;52748;51.112;5.880;2023-02-28T14:41:06;16.93;55.33
65985;HTU21D;52748;51.112;5.880;2023-02-28T14:43:52;16.95;55.42
65985;HTU21D;52748;51.112;5.880;2023-02-28T14:46:19;17.00;55.27
65985;HTU21D;52748;51.112;5.880;2023-02-28T14:48:49;17.02;54.91
65985;HTU21D;52748;51.112;5.880;2023-02-28T14:51:21;16.99;54.91
65985;HTU21D;52748;51.112;5.880;2023-02-28T14:53:59;17.00;54.82
65985;HTU21D;52748;51.112;5.880;2023-02-28T14:56:35;16.99;54.77
65985;HTU21D;52748;51.112;5.880;2023-02-28T14:59:04;16.99;54.82
65985;HTU21D;52748;51.112;5.880;2023-02-28T15:01:30;17.00;54.81
65985;HTU21D;52748;51.112;5.880;2023-02-28T15:04:04;16.99;54.70
65985;HTU21D;52748;51.112;5.880;2023-02-28T15:06:32;16.99;54.71
65985;HTU21D;52748;51.112;5.880;2023-02-28T15:09:18;16.98;54.91
65985;HTU21D;52748;51.112;5.880;2023-02-28T15:11:48;16.99;54.96
65985;HTU21D;52748;51.112;5.880;2023-02-28T15:14:19;17.00;55.00
65985;HTU21D;52748;51.112;5.880;2023-02-28T15:16:55;17.03;54.87
65985;HTU21D;52748;51.112;5.880;2023-02-28T15:19:34;17.00;54.92
65985;HTU21D;52748;51.112;5.880;2023-02-28T15:22:07;16.98;55.06
65985;HTU21D;52748;51.112;5.880;2023-02-28T15:24:42;17.00;55.14
65985;HTU21D;52748;51.112;5.880;2023-02-28T15:27:20;17.00;55.27
65985;HTU21D;52748;51.112;5.880;2023-02-28T15:29:50;16.99;55.32
65985;HTU21D;52748;51.112;5.880;2023-02-28T15:32:38;16.99;55.24
65985;HTU21D;52748;51.112;5.880;2023-02-28T15:35:37;16.99;55.12
65985;HTU21D;52748;51.112;5.880;2023-02-28T15:38:21;17.00;55.04
65985;HTU21D;52748;51.112;5.880;2023-02-28T15:40:57;16.99;54.91
65985;HTU21D;52748;51.112;5.880;2023-02-28T15:43:29;16.98;55.01
65985;HTU21D;52748;51.112;5.880;2023-02-28T15:46:07;16.98;55.02
65985;HTU21D;52748;51.112;5.880;2023-02-28T15:48:37;16.98;54.83
65985;HTU21D;52748;51.112;5.880;2023-02-28T15:53:44;16.98;54.72
65985;HTU21D;52748;51.112;5.880;2023-02-28T15:56:25;16.96;54.75
65985;HTU21D;52748;51.112;5.880;2023-02-28T15:58:57;16.96;54.53
65985;HTU21D;52748;51.112;5.880;2023-02-28T16:01:25;16.96;53.11
65985;HTU21D;52748;51.112;5.880;2023-02-28T16:03:56;16.94;51.75
65985;HTU21D;52748;51.112;5.880;2023-02-28T16:06:33;16.93;50.61
65985;HTU21D;52748;51.112;5.880;2023-02-28T16:08:59;16.92;49.51
65985;HTU21D;52748;51.112;5.880;2023-02-28T16:11:25;16.90;49.17
65985;HTU21D;52748;51.112;5.880;2023-02-28T16:13:52;16.88;51.81
65985;HTU21D;52748;51.112;5.880;2023-02-28T16:16:21;16.89;56.13
65985;HTU21D;52748;51.112;5.880;2023-02-28T16:18:48;16.89;58.77
65985;HTU21D;52748;51.112;5.880;2023-02-28T16:21:14;16.89;61.24
65985;HTU21D;52748;51.112;5.880;2023-02-28T16:23:40;16.87;59.66
65985;HTU21D;52748;51.112;5.880;2023-02-28T16:26:08;16.86;58.70
65985;HTU21D;52748;51.112;5.880;2023-02-28T16:28:38;16.88;57.18
65985;HTU21D;52748;51.112;5.880;2023-02-28T16:31:06;16.90;56.51
65985;HTU21D;52748;51.112;5.880;2023-02-28T16:33:33;16.91;55.87
65985;HTU21D;52748;51.112;5.880;2023-02-28T16:36:00;16.91;55.20
65985;HTU21D;52748;51.112;5.880;2023-02-28T16:38:26;16.92;57.31
65985;HTU21D;52748;51.112;5.880;2023-02-28T16:40:56;16.91;59.56
65985;HTU21D;52748;51.112;5.880;2023-02-28T16:43:25;16.91;59.99
65985;HTU21D;52748;51.112;5.880;2023-02-28T16:45:56;16.93;59.24
65985;HTU21D;52748;51.112;5.880;2023-02-28T16:48:24;16.96;60.91
65985;HTU21D;52748;51.112;5.880;2023-02-28T16:50:51;17.02;61.34
65985;HTU21D;52748;51.112;5.880;2023-02-28T16:53:17;17.07;61.00
65985;HTU21D;52748;51.112;5.880;2023-02-28T16:55:43;17.10;59.85
65985;HTU21D;52748;51.112;5.880;2023-02-28T16:58:15;17.13;60.10
65985;HTU21D;52748;51.112;5.880;2023-02-28T17:00:41;17.13;60.35
65985;HTU21D;52748;51.112;5.880;2023-02-28T17:03:23;17.14;60.56
65985;HTU21D;52748;51.112;5.880;2023-02-28T17:05:50;17.14;60.55
65985;HTU21D;52748;51.112;5.880;2023-02-28T17:08:16;17.14;60.59
65985;HTU21D;52748;51.112;5.880;2023-02-28T17:10:42;17.15;60.57
65985;HTU21D;52748;51.112;5.880;2023-02-28T17:13:08;17.17;60.51
65985;HTU21D;52748;51.112;5.880;2023-02-28T17:15:35;17.19;60.47
65985;HTU21D;52748;51.112;5.880;2023-02-28T17:18:05;17.22;60.39
65985;HTU21D;52748;51.112;5.880;2023-02-28T17:20:33;17.23;60.44
65985;HTU21D;52748;51.112;5.880;2023-02-28T17:22:59;17.25;60.44
65985;HTU21D;52748;51.112;5.880;2023-02-28T17:25:25;17.26;60.41
65985;HTU21D;52748;51.112;5.880;2023-02-28T17:27:53;17.31;60.34
65985;HTU21D;52748;51.112;5.880;2023-02-28T17:30:26;17.32;60.31
65985;HTU21D;52748;51.112;5.880;2023-02-28T17:32:56;17.37;60.44
65985;HTU21D;52748;51.112;5.880;2023-02-28T17:35:22;17.44;60.50
65985;HTU21D;52748;51.112;5.880;2023-02-28T17:37:49;17.53;60.19
65985;HTU21D;52748;51.112;5.880;2023-02-28T17:40:21;17.62;59.81
65985;HTU21D;52748;51.112;5.880;2023-02-28T17:42:47;17.72;59.48
65985;HTU21D;52748;51.112;5.880;2023-02-28T17:45:16;17.79;59.27
65985;HTU21D;52748;51.112;5.880;2023-02-28T17:47:46;17.87;58.93
65985;HTU21D;52748;51.112;5.880;2023-02-28T17:50:16;17.94;58.57
65985;HTU21D;52748;51.112;5.880;2023-02-28T17:52:43;17.99;58.28
65985;HTU21D;52748;51.112;5.880;2023-02-28T17:55:10;18.06;58.06
65985;HTU21D;52748;51.112;5.880;2023-02-28T17:57:36;18.10;57.90